NCAR-RAP Real-Time Weather Data

Output produced by METARs form (20 February 2019  18:38 UTC)
found at http://weather.rap.ucar.edu/surface/
 
RJBB 201800Z AUTO 33012KT 9999 SCT050 OVC060 09/02 Q1021 NOSIG
 
 
 
 
RJOA 201300Z 31007KT 9999 FEW020 BKN030 BKN040 05/M02 Q1022
 
 
 
RJOH 201800Z 32008KT 9999 -SHRA FEW020 BKN030 OVC050 06/01 Q1023
 
RJOI 201755Z 31005KT 9999 FEW030 FEW045 BKN140 05/00 A3022 RMK SLP234 T00500000 10083 20050 58007
 
 
 
 
 
 
 
 
 
 
 
RJFF 201830Z AUTO VRB01KT 9999 FEW042 BKN045 OVC120 07/03 Q1023 NOSIG RMK A3022
 
 
 
RJFO 201300Z 32005KT 9999 FEW035 SCT/// 08/02 Q1023
 
RJFR 201800Z 30004KT 9999 FEW045 SCT150 07/01 Q1023
 
RJFS 201800Z 34003KT CAVOK 06/04 Q1023